Impacts TAF Board
For situational awareness. Not to be used for flight planning purposes.
IDs:

KIAH - Houston/Bush Intl, TX, US

Issued at 1500 UTC 21 May 2019
Updated at 1514 UTC 21 May 2019
Potential Impact None Slight Moderate High
Time<<22/04Z 22/05Z 22/06Z 22/07Z 22/08Z 22/09Z 22/10Z 22/11Z 22/12Z 22/13Z 22/14Z 22/15Z 22/16Z>>
Type PRVL PRVL PRVL PRVL PRVL PRVL PRVL PRVL PRVL PRVL PRVL PRVL PRVL
VIS >6 >6 >6 >6 >6 >6 >6 >6 >6 >6 >6 >6 >6
CIG 25 25 15 15 15 15 15 15 15 15 15 25 25
Cover BKN BKN BKN BKN BKN BKN BKN BKN BKN BKN BKN BKN BKN
FltCat MVFR MVFR MVFR MVFR MVFR MVFR MVFR MVFR MVFR MVFR MVFR MVFR MVFR
WX -- -- -- -- -- -- -- -- -- -- -- -- --
WDir 160 160 160 160 160 160 160 160 160 160 160 160 160
WSpd 7 7 7 7 7 7 7 7 7 7 7 12 12
WGst -- -- -- -- -- -- -- -- -- -- -- -- --
Raw TAF
KIAH 211500Z 2115/2218 16018G30KT P6SM BKN025 BKN250
  FM211900 17018G28KT P6SM VCTS SCT030CB BKN045
  FM212300 17013KT P6SM VCSH SCT025 BKN035
  FM220300 16007KT P6SM SCT015 BKN025
  FM220600 16007KT P6SM BKN015
  FM221500 16012KT P6SM BKN025
  FM221700 16015KT P6SM SCT035


METAR Board
Radar Display
Forecast Discussion
For situational awareness. Not to be used for flight planning purposes.